Time;durP1;ratioP1;P1;durP2;ratioP2;P2;SDS_P1;SDS_P2;PMS_P1;PMS_P2;Temp;Humidity;BMP_temperature;BMP_pressure;BME280_temperature;BME280_humidity;BME280_pressure;Samples;Min_cycle;Max_cycle;Signal;HPM_P1;HPM_P2
2021/06/26 00:01:00;;;;;;;;;;;;;;;22.99;79.77;100631.16;5053856;28;1912;-44
2021/06/26 00:03:30;;;;;;;;;;;;;;;22.96;79.36;100601.84;5053823;28;1862;-43
2021/06/26 00:06:05;;;;;;;;;;;;;;;22.96;79.53;100591.06;5048147;28;1973;-43
2021/06/26 00:08:31;;;;;;;;;;;;;;;22.97;79.60;100590.03;5051938;28;1143;-43
2021/06/26 00:10:58;;;;;;;;;;;;;;;22.96;79.54;100582.97;5054611;28;1033;-42
2021/06/26 00:13:32;;;;;;;;;;;;;;;22.95;79.61;100559.69;5054365;28;1994;-43
2021/06/26 00:16:02;;;;;;;;;;;;;;;22.96;79.51;100523.63;5053845;28;2012;-42
2021/06/26 00:18:30;;;;;;;;;;;;;;;22.93;79.32;100507.78;5050199;28;1938;-42
2021/06/26 00:21:08;;;;;;;;;;;;;;;22.99;79.54;100492.78;5054011;28;1812;-42
2021/06/26 00:23:42;;;;;;;;;;;;;;;22.97;79.45;100492.94;5054125;28;1681;-43
2021/06/26 00:26:17;;;;;;;;;;;;;;;22.96;79.38;100493.97;5049917;28;1979;-43
2021/06/26 00:28:43;;;;;;;;;;;;;;;22.97;79.31;100481.31;5053447;28;1853;-44
2021/06/26 00:31:14;;;;;;;;;;;;;;;23.02;79.44;100490.63;5053862;28;1670;-43
2021/06/26 00:36:26;;;;;;;;;;;;;;;23.02;79.52;100468.22;5053790;28;2530;-42
2021/06/26 00:38:54;;;;;;;;;;;;;;;22.99;79.39;100463.97;5053736;28;1971;-43
2021/06/26 00:41:20;;;;;;;;;;;;;;;22.95;79.45;100461.78;5053631;28;2019;-43
2021/06/26 00:43:58;;;;;;;;;;;;;;;22.97;79.52;100471.38;5053588;28;1665;-42
2021/06/26 00:46:32;;;;;;;;;;;;;;;22.95;79.57;100462.63;5052387;28;1898;-43
2021/06/26 00:49:08;;;;;;;;;;;;;;;22.97;79.77;100448.97;5053250;28;1846;-43
2021/06/26 00:51:37;;;;;;;;;;;;;;;22.93;79.63;100405.31;5047631;28;1162;-42
2021/06/26 00:54:07;;;;;;;;;;;;;;;22.96;79.32;100393.34;5051956;28;1849;-42
2021/06/26 00:56:33;;;;;;;;;;;;;;;22.95;79.43;100375.50;5053696;28;1037;-42
2021/06/26 00:59:09;;;;;;;;;;;;;;;22.97;79.41;100377.00;5053325;28;1838;-42
2021/06/26 01:01:40;;;;;;;;;;;;;;;22.98;79.23;100367.91;5047754;28;1766;-43
2021/06/26 01:04:11;;;;;;;;;;;;;;;22.96;79.10;100367.25;5053290;28;1786;-42
2021/06/26 01:06:49;;;;;;;;;;;;;;;22.97;79.39;100384.25;5053282;28;1914;-42
2021/06/26 01:09:19;;;;;;;;;;;;;;;23.01;79.37;100390.97;5052696;28;1775;-42
2021/06/26 01:11:48;;;;;;;;;;;;;;;22.96;79.43;100372.63;5054014;28;1752;-42
2021/06/26 01:14:29;;;;;;;;;;;;;;;22.96;79.54;100363.69;5052904;28;1623;-43
2021/06/26 01:16:57;;;;;;;;;;;;;;;22.97;79.37;100365.38;5036540;28;1929;-42
2021/06/26 01:19:27;;;;;;;;;;;;;;;22.96;79.16;100367.25;5053255;28;1799;-42
2021/06/26 01:21:58;;;;;;;;;;;;;;;22.96;79.28;100351.06;5051313;28;1080;-42
2021/06/26 01:24:29;;;;;;;;;;;;;;;22.95;79.29;100360.16;5053266;28;1905;-42
2021/06/26 01:26:58;;;;;;;;;;;;;;;22.95;79.66;100360.16;5052902;28;1977;-42
2021/06/26 01:29:27;;;;;;;;;;;;;;;22.94;79.56;100347.69;5052796;28;1671;-42
2021/06/26 01:31:56;;;;;;;;;;;;;;;22.94;79.60;100357.63;5053143;28;1683;-43
2021/06/26 01:34:23;;;;;;;;;;;;;;;22.96;79.32;100361.84;5052584;28;1704;-43
2021/06/26 01:37:01;;;;;;;;;;;;;;;23.00;79.47;100400.09;5053270;28;1092;-43
2021/06/26 01:39:35;;;;;;;;;;;;;;;22.96;79.41;100418.47;5052743;28;1862;-42
2021/06/26 01:42:02;;;;;;;;;;;;;;;22.98;79.49;100440.72;5053045;28;1626;-42
2021/06/26 01:44:29;;;;;;;;;;;;;;;22.95;79.43;100446.44;5052908;28;1974;-42
2021/06/26 01:46:56;;;;;;;;;;;;;;;22.92;79.86;100449.50;5052506;28;1973;-42
2021/06/26 01:49:28;;;;;;;;;;;;;;;22.96;79.46;100471.53;5051904;28;1818;-42
2021/06/26 01:51:57;;;;;;;;;;;;;;;22.95;79.53;100476.09;5033294;28;1075;-42
2021/06/26 01:54:33;;;;;;;;;;;;;;;22.99;79.70;100495.47;5047674;28;1968;-42
2021/06/26 01:57:21;;;;;;;;;;;;;;;22.94;79.66;100487.91;5053275;28;1076;-42
2021/06/26 01:59:49;;;;;;;;;;;;;;;22.96;79.39;100504.75;5050952;28;1753;-43
2021/06/26 02:02:22;;;;;;;;;;;;;;;22.94;79.61;100500.53;5161400;22;3660;-44
2021/06/26 02:04:48;;;;;;;;;;;;;;;22.98;79.44;100500.03;5076815;28;1745;-44
2021/06/26 02:07:15;;;;;;;;;;;;;;;22.95;79.50;100500.38;5078263;28;1906;-44
2021/06/26 02:09:41;;;;;;;;;;;;;;;22.96;79.51;100522.78;5081738;28;1796;-45
2021/06/26 02:12:10;;;;;;;;;;;;;;;22.97;79.57;100559.53;5081506;28;1154;-44
2021/06/26 02:14:37;;;;;;;;;;;;;;;22.96;79.65;100541.66;5082836;28;1872;-44
2021/06/26 02:17:03;;;;;;;;;;;;;;;23.00;79.42;100540.34;5084761;28;1929;-42
2021/06/26 02:19:30;;;;;;;;;;;;;;;22.94;79.31;100522.97;5085890;28;1925;-42
2021/06/26 02:21:56;;;;;;;;;;;;;;;22.92;79.44;100506.13;5081734;28;1829;-41
2021/06/26 02:24:23;;;;;;;;;;;;;;;22.94;79.58;100493.31;5086683;28;1602;-43
2021/06/26 02:26:49;;;;;;;;;;;;;;;22.95;79.61;100499.53;5085051;28;1910;-41
2021/06/26 02:29:17;;;;;;;;;;;;;;;22.93;79.54;100502.38;5083947;28;1598;-41
2021/06/26 02:31:44;;;;;;;;;;;;;;;22.95;79.72;100505.75;5082562;28;1533;-42
2021/06/26 02:34:13;;;;;;;;;;;;;;;22.97;79.52;100502.91;5081720;28;1805;-41
2021/06/26 02:36:39;;;;;;;;;;;;;;;22.93;79.48;100497.00;5090427;28;1083;-42
2021/06/26 02:39:06;;;;;;;;;;;;;;;22.94;79.31;100498.69;5093076;28;1772;-42
2021/06/26 02:41:32;;;;;;;;;;;;;;;22.94;79.54;100498.69;5084037;28;1610;-42
2021/06/26 02:43:59;;;;;;;;;;;;;;;22.94;79.21;100522.97;5083901;28;1662;-42
2021/06/26 02:46:27;;;;;;;;;;;;;;;22.95;79.38;100554.28;5076698;28;1765;-41
2021/06/26 02:48:53;;;;;;;;;;;;;;;22.99;79.32;100600.66;5082443;28;1973;-42
2021/06/26 02:51:20;;;;;;;;;;;;;;;22.96;79.56;100628.81;5087107;28;1174;-41
2021/06/26 02:53:46;;;;;;;;;;;;;;;22.95;79.34;100619.00;5079154;28;1590;-43
2021/06/26 02:56:13;;;;;;;;;;;;;;;22.94;79.48;100611.94;5083734;28;988;-42
2021/06/26 02:58:40;;;;;;;;;;;;;;;22.94;79.58;100611.94;5088637;28;1928;-41
2021/06/26 03:01:07;;;;;;;;;;;;;;;22.92;79.50;100615.78;5085676;28;1706;-42
2021/06/26 03:03:34;;;;;;;;;;;;;;;22.92;79.43;100610.41;5075411;28;1961;-43
2021/06/26 03:06:01;;;;;;;;;;;;;;;22.94;79.46;100608.38;5089078;28;1685;-43
2021/06/26 03:08:27;;;;;;;;;;;;;;;22.96;79.40;100603.66;5087139;28;1952;-42
2021/06/26 03:10:54;;;;;;;;;;;;;;;22.94;79.34;100606.56;5082466;28;1993;-41
2021/06/26 03:13:20;;;;;;;;;;;;;;;22.94;79.52;100601.16;5083687;28;1929;-41
2021/06/26 03:15:47;;;;;;;;;;;;;;;22.93;79.57;100577.88;5085596;28;1691;-42
2021/06/26 03:18:13;;;;;;;;;;;;;;;22.94;79.32;100567.94;5080036;28;1633;-41
2021/06/26 03:20:41;;;;;;;;;;;;;;;22.92;79.61;100538.47;5084488;28;1614;-42
2021/06/26 03:23:08;;;;;;;;;;;;;;;22.92;79.51;100503.41;5090451;28;1072;-42
2021/06/26 03:25:35;;;;;;;;;;;;;;;22.94;79.51;100482.50;5082833;28;1849;-41
2021/06/26 03:28:02;;;;;;;;;;;;;;;22.92;79.46;100492.63;5082592;28;1909;-43
2021/06/26 03:30:28;;;;;;;;;;;;;;;22.93;79.43;100515.88;5084680;28;1813;-41
2021/06/26 03:32:54;;;;;;;;;;;;;;;22.94;79.33;100539.16;5084861;28;1784;-42
2021/06/26 03:35:21;;;;;;;;;;;;;;;22.93;79.57;100556.31;5085034;28;1625;-42
2021/06/26 03:37:49;;;;;;;;;;;;;;;22.93;79.38;100615.63;5089342;28;1756;-44
2021/06/26 03:40:15;;;;;;;;;;;;;;;22.93;79.33;100701.94;5082919;28;1095;-41
2021/06/26 03:42:42;;;;;;;;;;;;;;;22.97;79.50;100686.28;5082775;28;1945;-42
2021/06/26 03:45:09;;;;;;;;;;;;;;;22.93;79.64;100690.31;5083586;28;2031;-42
2021/06/26 03:47:46;;;;;;;;;;;;;;;22.92;79.34;100705.66;5084914;28;1905;-42
2021/06/26 03:50:14;;;;;;;;;;;;;;;22.92;79.58;100711.03;5079284;28;1634;-41
2021/06/26 03:52:40;;;;;;;;;;;;;;;22.95;79.53;100705.31;5091592;28;1617;-43
2021/06/26 03:55:10;;;;;;;;;;;;;;;22.93;79.56;100698.41;5083647;28;1278;-42
2021/06/26 03:57:37;;;;;;;;;;;;;;;22.89;79.45;100684.38;5076589;28;1520;-42
2021/06/26 04:00:06;;;;;;;;;;;;;;;22.92;79.56;100672.44;5072780;28;1479;-43
2021/06/26 04:02:34;;;;;;;;;;;;;;;22.94;79.44;100689.28;5079853;28;1486;-42
2021/06/26 04:05:01;;;;;;;;;;;;;;;22.97;79.39;100687.13;5079564;28;1491;-42
2021/06/26 04:07:28;;;;;;;;;;;;;;;22.94;79.42;100689.28;5080814;28;1906;-42
2021/06/26 04:09:55;;;;;;;;;;;;;;;22.94;79.39;100703.63;5072365;28;1534;-43
2021/06/26 04:12:24;;;;;;;;;;;;;;;22.93;79.52;100717.28;5085558;28;1591;-43
2021/06/26 04:14:53;;;;;;;;;;;;;;;22.94;79.69;100736.00;5083336;28;1309;-42
2021/06/26 04:17:19;;;;;;;;;;;;;;;22.96;79.80;100731.28;5076098;28;1843;-41
2021/06/26 04:19:47;;;;;;;;;;;;;;;22.92;79.55;100715.56;5085214;28;1528;-43
2021/06/26 04:22:14;;;;;;;;;;;;;;;22.91;79.42;100709.34;5088317;28;1751;-41
2021/06/26 04:24:41;;;;;;;;;;;;;;;22.92;79.56;100686.78;5087473;28;1569;-42
2021/06/26 04:27:07;;;;;;;;;;;;;;;22.94;79.26;100682.06;5086613;28;1984;-42
2021/06/26 04:29:35;;;;;;;;;;;;;;;22.96;79.51;100684.56;5078835;28;1820;-42
2021/06/26 04:32:02;;;;;;;;;;;;;;;22.92;79.40;100684.06;5082376;28;1804;-42
2021/06/26 04:34:28;;;;;;;;;;;;;;;22.95;79.71;100693.69;5081801;28;1903;-42
2021/06/26 04:36:55;;;;;;;;;;;;;;;22.93;79.36;100701.94;5084632;28;1075;-42
2021/06/26 04:39:21;;;;;;;;;;;;;;;22.89;79.34;100703.25;5085873;28;1793;-42
2021/06/26 04:41:48;;;;;;;;;;;;;;;22.89;79.40;100679.00;5085017;28;1802;-43
2021/06/26 04:44:14;;;;;;;;;;;;;;;22.90;79.59;100659.13;5081546;28;1802;-42
2021/06/26 04:46:42;;;;;;;;;;;;;;;22.92;79.49;100635.53;5083802;28;1541;-42
2021/06/26 04:49:10;;;;;;;;;;;;;;;22.92;79.56;100634.66;5085408;28;1914;-43
2021/06/26 04:51:38;;;;;;;;;;;;;;;22.92;79.40;100630.16;5083942;28;2104;-43
2021/06/26 04:54:04;;;;;;;;;;;;;;;22.90;79.22;100616.00;5084451;28;1543;-41
2021/06/26 04:56:32;;;;;;;;;;;;;;;22.92;79.35;100602.31;5075535;28;1518;-42
2021/06/26 04:58:58;;;;;;;;;;;;;;;22.90;79.42;100598.94;5077461;28;1591;-42
2021/06/26 05:01:25;;;;;;;;;;;;;;;22.90;79.53;100605.19;5075263;28;1699;-43
2021/06/26 05:03:53;;;;;;;;;;;;;;;22.92;79.51;100646.31;5076161;28;1568;-42
2021/06/26 05:06:27;;;;;;;;;;;;;;;22.91;79.03;100652.72;5074894;28;1521;-41
2021/06/26 05:08:54;;;;;;;;;;;;;;;22.93;79.50;100660.66;5073581;28;1985;-42
2021/06/26 05:11:20;;;;;;;;;;;;;;;22.93;79.46;100663.34;5082176;28;1779;-42
2021/06/26 05:13:47;;;;;;;;;;;;;;;22.94;79.63;100671.28;5083681;28;1090;-42
2021/06/26 05:16:13;;;;;;;;;;;;;;;22.92;79.52;100661.63;5080295;28;1737;-42
2021/06/26 05:18:40;;;;;;;;;;;;;;;22.92;79.52;100672.44;5086746;28;1824;-42
2021/06/26 05:21:08;;;;;;;;;;;;;;;22.88;79.65;100663.84;5081623;28;1827;-41
2021/06/26 05:23:34;;;;;;;;;;;;;;;22.89;79.47;100661.97;5075248;28;1755;-42
2021/06/26 05:26:03;;;;;;;;;;;;;;;22.89;79.51;100667.38;5083025;28;1118;-42
2021/06/26 05:28:31;;;;;;;;;;;;;;;22.91;79.54;100666.19;5083236;28;1906;-42
2021/06/26 05:30:57;;;;;;;;;;;;;;;22.90;79.55;100656.44;5078423;28;1876;-43
2021/06/26 05:33:24;;;;;;;;;;;;;;;22.91;79.52;100649.19;5072854;28;1967;-42
2021/06/26 05:35:50;;;;;;;;;;;;;;;22.89;79.68;100646.66;5079850;28;1674;-43
2021/06/26 05:38:18;;;;;;;;;;;;;;;22.87;79.71;100640.56;5087039;28;1808;-43
2021/06/26 05:40:45;;;;;;;;;;;;;;;22.88;79.81;100650.38;5081360;28;1618;-42
2021/06/26 05:43:11;;;;;;;;;;;;;;;22.88;79.66;100631.50;5081888;28;2059;-42
2021/06/26 05:45:38;;;;;;;;;;;;;;;22.91;79.29;100654.56;5078202;28;1150;-42
2021/06/26 05:48:05;;;;;;;;;;;;;;;22.89;79.45;100656.59;5081765;28;1910;-41
2021/06/26 05:50:31;;;;;;;;;;;;;;;22.93;79.38;100666.88;5084246;28;1905;-41
2021/06/26 05:52:58;;;;;;;;;;;;;;;22.89;79.53;100662.81;5077261;28;1480;-41
2021/06/26 05:55:27;;;;;;;;;;;;;;;22.88;79.50;100666.53;5078762;28;1325;-42
2021/06/26 05:57:54;;;;;;;;;;;;;;;22.91;79.51;100674.28;5081475;28;1585;-42
2021/06/26 06:00:21;;;;;;;;;;;;;;;22.88;79.47;100671.94;5077995;28;1481;-42
2021/06/26 06:02:55;;;;;;;;;;;;;;;22.90;79.46;100671.75;5077810;28;1797;-42
2021/06/26 06:05:21;;;;;;;;;;;;;;;22.89;79.53;100683.56;5077998;28;1477;-43
2021/06/26 06:07:48;;;;;;;;;;;;;;;22.87;79.66;100675.63;5079885;28;1984;-42
2021/06/26 06:10:15;;;;;;;;;;;;;;;22.88;79.41;100674.63;5078107;28;1573;-42
2021/06/26 06:12:43;;;;;;;;;;;;;;;22.88;79.44;100674.63;5076948;28;1512;-43
2021/06/26 06:15:10;;;;;;;;;;;;;;;22.91;79.40;100668.91;5075644;28;1608;-43
2021/06/26 06:17:37;;;;;;;;;;;;;;;22.89;79.47;100657.44;5077796;28;1523;-43
2021/06/26 06:20:05;;;;;;;;;;;;;;;22.90;79.49;100672.63;5077933;28;1259;-41
2021/06/26 06:22:31;;;;;;;;;;;;;;;22.86;79.62;100667.69;5083288;28;1829;-43
2021/06/26 06:24:58;;;;;;;;;;;;;;;22.91;79.74;100670.75;5093387;28;1876;-42
2021/06/26 06:27:25;;;;;;;;;;;;;;;22.89;79.50;100667.38;5083352;28;1819;-43
2021/06/26 06:29:52;;;;;;;;;;;;;;;22.90;79.60;100680.69;5082133;28;1981;-42
2021/06/26 06:32:19;;;;;;;;;;;;;;;22.86;79.33;100657.78;5086136;28;1587;-42
2021/06/26 06:34:45;;;;;;;;;;;;;;;22.88;79.46;100660.28;5084689;28;1902;-43
2021/06/26 06:37:12;;;;;;;;;;;;;;;22.88;79.61;100655.75;5081607;28;1204;-43
2021/06/26 06:39:38;;;;;;;;;;;;;;;22.89;79.58;100665.53;5074767;28;2623;-42
2021/06/26 06:42:05;;;;;;;;;;;;;;;22.89;79.38;100661.97;5079338;28;1700;-42
2021/06/26 06:44:32;;;;;;;;;;;;;;;22.90;79.61;100677.13;5077916;28;1387;-43
2021/06/26 06:47:00;;;;;;;;;;;;;;;22.93;79.24;100674.97;5079856;28;1590;-42
2021/06/26 06:49:26;;;;;;;;;;;;;;;22.90;79.27;100669.91;5079346;28;1901;-43
2021/06/26 06:51:53;;;;;;;;;;;;;;;22.90;79.25;100687.94;5076371;28;2056;-42
2021/06/26 06:54:19;;;;;;;;;;;;;;;22.95;78.97;100686.44;5080339;28;1591;-42
2021/06/26 06:56:46;;;;;;;;;;;;;;;22.92;79.43;100680.50;5075166;28;1373;-42
2021/06/26 06:59:12;;;;;;;;;;;;;;;22.92;79.40;100680.50;5080504;28;1802;-43
2021/06/26 07:01:39;;;;;;;;;;;;;;;22.91;79.17;100671.59;5084963;28;1889;-42
2021/06/26 07:04:13;;;;;;;;;;;;;;;22.92;79.58;100661.63;5089383;28;1793;-42
2021/06/26 07:06:40;;;;;;;;;;;;;;;22.92;79.37;100672.44;5083413;28;1719;-42
2021/06/26 07:09:06;;;;;;;;;;;;;;;22.94;79.53;100655.09;5083257;28;1913;-43
2021/06/26 07:11:33;;;;;;;;;;;;;;;22.92;79.34;100657.13;5086690;28;1111;-42
2021/06/26 07:13:59;;;;;;;;;;;;;;;22.92;79.45;100656.25;5092296;28;2057;-42
2021/06/26 07:16:26;;;;;;;;;;;;;;;22.93;79.31;100655.25;5083000;28;1734;-42
2021/06/26 07:18:53;;;;;;;;;;;;;;;22.93;79.17;100626.44;5085068;28;1726;-42
2021/06/26 07:21:20;;;;;;;;;;;;;;;22.92;79.12;100622.06;5079080;28;1563;-42
2021/06/26 07:23:47;;;;;;;;;;;;;;;22.93;79.06;100615.63;5077249;28;1996;-41
2021/06/26 07:26:13;;;;;;;;;;;;;;;22.95;79.60;100635.19;5076408;28;1731;-42
2021/06/26 07:28:40;;;;;;;;;;;;;;;22.93;79.59;100626.44;5084369;28;1906;-42
2021/06/26 07:31:06;;;;;;;;;;;;;;;22.97;79.29;100622.38;5083921;28;1173;-42
2021/06/26 07:33:33;;;;;;;;;;;;;;;22.94;79.16;100611.94;5083242;28;1802;-42
2021/06/26 07:36:00;;;;;;;;;;;;;;;22.95;79.10;100623.56;5082903;28;1847;-42
2021/06/26 07:38:28;;;;;;;;;;;;;;;22.97;79.15;100617.00;5092053;28;1936;-42
2021/06/26 07:40:54;;;;;;;;;;;;;;;22.95;79.27;100597.44;5083000;28;1704;-43
2021/06/26 07:43:21;;;;;;;;;;;;;;;22.96;79.48;100609.94;5084267;28;1734;-42
2021/06/26 07:45:47;;;;;;;;;;;;;;;22.99;79.28;100608.75;5083615;28;1590;-42
2021/06/26 07:48:14;;;;;;;;;;;;;;;22.96;79.21;100604.53;5083821;28;1914;-42
2021/06/26 07:50:40;;;;;;;;;;;;;;;22.95;79.11;100608.22;5082660;28;1904;-42
2021/06/26 07:53:07;;;;;;;;;;;;;;;22.98;79.19;100618.69;5087797;28;1477;-43
2021/06/26 07:55:35;;;;;;;;;;;;;;;22.96;79.06;100593.75;5074777;28;1173;-42
2021/06/26 07:58:01;;;;;;;;;;;;;;;22.98;79.20;100596.28;5077126;28;1668;-42
2021/06/26 08:00:28;;;;;;;;;;;;;;;22.99;79.22;100612.28;5077383;28;1529;-43
2021/06/26 08:02:54;;;;;;;;;;;;;;;22.99;79.09;100612.28;5072327;28;1435;-42
2021/06/26 08:05:21;;;;;;;;;;;;;;;22.99;79.13;100606.88;5079771;28;1840;-42
2021/06/26 08:07:47;;;;;;;;;;;;;;;23.02;79.22;100609.28;5068060;28;1856;-42
2021/06/26 08:10:14;;;;;;;;;;;;;;;23.00;78.93;100611.28;5075827;28;1910;-42
2021/06/26 08:12:42;;;;;;;;;;;;;;;23.04;79.06;100609.13;5078091;28;1712;-43
2021/06/26 08:15:09;;;;;;;;;;;;;;;23.04;79.05;100595.66;5082961;28;1698;-42
2021/06/26 08:17:35;;;;;;;;;;;;;;;23.02;78.89;100597.69;5083494;28;1645;-42
2021/06/26 08:20:02;;;;;;;;;;;;;;;23.07;79.14;100605.25;5083457;28;1004;-42
2021/06/26 08:22:28;;;;;;;;;;;;;;;23.06;79.13;100598.16;5081711;28;1869;-42
2021/06/26 08:24:54;;;;;;;;;;;;;;;23.06;79.22;100615.22;5084653;28;1780;-42
2021/06/26 08:27:21;;;;;;;;;;;;;;;23.07;79.14;100616.03;5084127;28;1781;-42
2021/06/26 08:29:49;;;;;;;;;;;;;;;23.06;79.13;100595.47;5083882;28;1902;-42
2021/06/26 08:32:15;;;;;;;;;;;;;;;23.12;78.86;100619.94;5088099;28;991;-42
2021/06/26 08:34:42;;;;;;;;;;;;;;;23.09;78.88;100592.44;5084096;28;1880;-42
2021/06/26 08:37:08;;;;;;;;;;;;;;;23.08;78.96;100593.44;5084115;28;1734;-42
2021/06/26 08:39:35;;;;;;;;;;;;;;;23.08;78.96;100605.09;5084006;28;1704;-42
2021/06/26 08:42:02;;;;;;;;;;;;;;;23.09;78.95;100616.72;5083871;28;2449;-41
2021/06/26 08:44:29;;;;;;;;;;;;;;;23.11;78.83;100612.00;5083152;28;1677;-42
2021/06/26 08:46:57;;;;;;;;;;;;;;;23.09;78.94;100622.13;5085258;28;992;-42
2021/06/26 08:49:24;;;;;;;;;;;;;;;23.08;79.11;100597.00;5086243;28;1984;-42
2021/06/26 08:51:51;;;;;;;;;;;;;;;23.09;79.13;100597.84;5083460;28;1747;-42
2021/06/26 08:54:18;;;;;;;;;;;;;;;23.15;78.65;100610.66;5083907;28;1690;-41
2021/06/26 08:56:46;;;;;;;;;;;;;;;23.13;78.85;100591.94;5084897;28;1158;-41
2021/06/26 08:59:12;;;;;;;;;;;;;;;23.18;79.26;100588.75;5081305;28;1816;-42
2021/06/26 09:01:40;;;;;;;;;;;;;;;23.15;78.83;100597.16;5083248;28;1837;-42
2021/06/26 09:04:09;;;;;;;;;;;;;;;23.17;78.78;100582.50;5087528;28;1747;-42
2021/06/26 09:06:46;;;;;;;;;;;;;;;23.15;78.98;100564.81;5081076;28;1742;-42
2021/06/26 09:09:12;;;;;;;;;;;;;;;23.16;78.67;100574.59;5075968;28;1901;-42
2021/06/26 09:11:39;;;;;;;;;;;;;;;23.19;78.80;100576.94;5081865;28;1675;-42
2021/06/26 09:14:16;;;;;;;;;;;;;;;23.17;78.80;100585.19;5077698;28;1118;-42
2021/06/26 09:16:48;;;;;;;;;;;;;;;23.17;79.07;100587.06;5079002;28;2011;-42
2021/06/26 09:19:16;;;;;;;;;;;;;;;23.21;78.85;100583.00;5082636;28;1738;-42
2021/06/26 09:21:45;;;;;;;;;;;;;;;23.22;78.98;100576.63;5076063;28;1008;-42
2021/06/26 09:24:13;;;;;;;;;;;;;;;23.22;78.82;100565.84;5088952;28;1983;-43
2021/06/26 09:26:41;;;;;;;;;;;;;;;23.19;78.89;100561.59;5087213;28;1804;-42
2021/06/26 09:29:09;;;;;;;;;;;;;;;23.20;78.85;100551.66;5077357;28;2123;-43
2021/06/26 09:31:35;;;;;;;;;;;;;;;23.18;78.80;100556.38;5078250;28;2293;-42
2021/06/26 09:34:15;;;;;;;;;;;;;;;23.18;78.65;100541.03;5089769;28;1906;-43
2021/06/26 09:36:43;;;;;;;;;;;;;;;23.19;78.99;100558.06;5087299;28;1694;-45
2021/06/26 09:39:11;;;;;;;;;;;;;;;23.20;78.87;100548.97;5082580;28;1804;-43
2021/06/26 09:41:40;;;;;;;;;;;;;;;23.23;78.71;100556.72;5087271;28;1611;-43
2021/06/26 09:44:09;;;;;;;;;;;;;;;23.22;78.98;100555.03;5077034;28;1882;-43
2021/06/26 09:46:44;;;;;;;;;;;;;;;23.25;78.57;100541.19;5074227;28;1789;-43
2021/06/26 09:49:11;;;;;;;;;;;;;;;23.25;78.84;100546.59;5079999;28;1902;-42
2021/06/26 09:51:37;;;;;;;;;;;;;;;23.21;79.04;100535.28;5088391;28;1003;-43
2021/06/26 09:54:06;;;;;;;;;;;;;;;23.21;78.77;100520.97;5089818;28;1830;-42
2021/06/26 09:56:43;;;;;;;;;;;;;;;23.21;78.69;100513.72;5092515;28;1030;-43
2021/06/26 09:59:09;;;;;;;;;;;;;;;23.21;78.40;100518.25;5082245;28;1921;-43
2021/06/26 10:01:36;;;;;;;;;;;;;;;23.22;78.74;100515.41;5080493;28;1547;-43
2021/06/26 10:04:04;;;;;;;;;;;;;;;23.21;78.78;100513.72;5078560;28;2022;-42
2021/06/26 10:06:32;;;;;;;;;;;;;;;23.23;78.82;100524.34;5088142;28;1699;-43
2021/06/26 10:08:59;;;;;;;;;;;;;;;23.20;78.76;100505.81;5080964;28;1914;-43
2021/06/26 10:11:29;;;;;;;;;;;;;;;23.22;78.70;100511.88;5085689;28;1708;-43
2021/06/26 10:13:55;;;;;;;;;;;;;;;23.21;78.81;100510.19;5082860;28;1801;-43
2021/06/26 10:16:23;;;;;;;;;;;;;;;23.22;78.83;100514.56;5084861;28;1158;-42
2021/06/26 10:18:50;;;;;;;;;;;;;;;23.22;78.77;100523.50;5084436;28;1654;-43
2021/06/26 10:21:16;;;;;;;;;;;;;;;23.24;78.93;100523.34;5085238;28;1856;-42
2021/06/26 10:23:43;;;;;;;;;;;;;;;23.25;79.08;100524.16;5092721;28;1621;-43
2021/06/26 10:26:10;;;;;;;;;;;;;;;23.20;78.98;100513.91;5085501;28;1798;-42
2021/06/26 10:28:47;;;;;;;;;;;;;;;23.20;78.85;100525.53;5084989;28;1670;-44
2021/06/26 10:31:14;;;;;;;;;;;;;;;23.20;78.68;100530.09;5083368;28;1914;-43
2021/06/26 10:33:40;;;;;;;;;;;;;;;23.21;78.68;100520.97;5084014;28;1208;-43
2021/06/26 10:36:07;;;;;;;;;;;;;;;23.21;78.78;100532.59;5078294;28;1987;-43
2021/06/26 10:38:41;;;;;;;;;;;;;;;23.20;78.92;100524.69;5078302;28;1687;-42
2021/06/26 10:41:15;;;;;;;;;;;;;;;23.21;78.71;100511.00;5074979;28;1760;-43
2021/06/26 10:43:53;;;;;;;;;;;;;;;23.19;78.55;100514.91;5084417;28;1682;-42
2021/06/26 10:46:20;;;;;;;;;;;;;;;23.23;79.03;100530.56;5079357;28;1560;-43
2021/06/26 10:48:58;;;;;;;;;;;;;;;23.22;78.97;100523.50;5080810;28;1071;-43
2021/06/26 10:51:31;;;;;;;;;;;;;;;23.21;78.81;100510.19;5086673;28;1977;-42
2021/06/26 10:53:57;;;;;;;;;;;;;;;23.20;78.93;100492.31;5078971;28;1680;-43
2021/06/26 10:56:31;;;;;;;;;;;;;;;23.20;78.89;100503.13;5087457;28;1054;-42
2021/06/26 10:59:08;;;;;;;;;;;;;;;23.24;78.82;100515.25;5085772;28;1952;-42
2021/06/26 11:01:34;;;;;;;;;;;;;;;23.19;78.90;100507.63;5085476;28;1755;-42
2021/06/26 11:04:05;;;;;;;;;;;;;;;23.20;78.87;100497.72;5077454;28;1676;-43
2021/06/26 11:06:32;;;;;;;;;;;;;;;23.22;78.79;100507.31;5083477;28;1750;-43
2021/06/26 11:09:00;;;;;;;;;;;;;;;23.20;78.83;100489.63;5083069;28;1622;-43
2021/06/26 11:11:28;;;;;;;;;;;;;;;23.21;78.81;100494.00;5076261;28;1905;-43
2021/06/26 11:14:05;;;;;;;;;;;;;;;23.19;78.87;100485.22;5076090;28;1626;-45
2021/06/26 11:16:31;;;;;;;;;;;;;;;23.23;78.95;100498.19;5074931;28;1100;-43
2021/06/26 11:18:58;;;;;;;;;;;;;;;23.22;78.85;100490.28;5080549;28;1900;-42
2021/06/26 11:21:25;;;;;;;;;;;;;;;23.24;78.87;100504.44;5085108;28;1730;-43
2021/06/26 11:23:51;;;;;;;;;;;;;;;23.20;78.89;100482.38;5084096;28;1687;-42
2021/06/26 11:26:18;;;;;;;;;;;;;;;23.20;78.94;100486.94;5078274;28;1927;-43
2021/06/26 11:28:45;;;;;;;;;;;;;;;23.22;79.11;100479.50;5076359;28;1501;-43
2021/06/26 11:31:13;;;;;;;;;;;;;;;23.21;78.69;100483.19;5079262;28;1906;-43
2021/06/26 11:33:40;;;;;;;;;;;;;;;23.23;78.73;100483.88;5077277;28;1359;-43
2021/06/26 11:36:09;;;;;;;;;;;;;;;23.21;78.90;100477.81;5077139;28;1887;-44
2021/06/26 11:38:36;;;;;;;;;;;;;;;23.24;78.96;100488.28;5077490;28;1844;-42
2021/06/26 11:41:03;;;;;;;;;;;;;;;23.19;78.76;100459.09;5081830;28;1743;-43
2021/06/26 11:43:30;;;;;;;;;;;;;;;23.21;78.69;100478.63;5081673;28;2078;-43
2021/06/26 11:45:56;;;;;;;;;;;;;;;23.26;79.05;100478.16;5080803;28;1608;-43
2021/06/26 11:48:24;;;;;;;;;;;;;;;23.22;78.79;100474.94;5078054;28;1599;-44
2021/06/26 11:50:51;;;;;;;;;;;;;;;23.21;78.86;100467.00;5079587;28;1909;-42
2021/06/26 11:53:19;;;;;;;;;;;;;;;23.23;78.85;100473.91;5074000;28;1507;-43
2021/06/26 11:58:36;;;;;;;;;;;;;;;23.21;79.04;100450.81;5079447;28;2327;-42
2021/06/26 12:01:03;;;;;;;;;;;;;;;23.19;78.65;100442.06;5082690;28;1575;-43
2021/06/26 12:03:31;;;;;;;;;;;;;;;23.21;79.05;100442.72;5082775;28;1974;-44
2021/06/26 12:05:59;;;;;;;;;;;;;;;23.19;78.80;100436.66;5084675;28;1643;-43
2021/06/26 12:08:26;;;;;;;;;;;;;;;23.20;78.83;100432.97;5086803;28;2363;-43
2021/06/26 12:10:52;;;;;;;;;;;;;;;23.25;78.73;100424.34;5075718;28;1914;-43
2021/06/26 12:13:19;;;;;;;;;;;;;;;23.22;78.62;100417.47;5075826;28;1735;-43
2021/06/26 12:15:46;;;;;;;;;;;;;;;23.25;78.99;100422.50;5084831;28;1420;-42
2021/06/26 12:18:12;;;;;;;;;;;;;;;23.21;78.89;100418.44;5081629;28;1809;-42
2021/06/26 12:20:41;;;;;;;;;;;;;;;23.19;79.01;100409.69;5084219;28;1764;-42
2021/06/26 12:23:09;;;;;;;;;;;;;;;23.22;78.82;100414.75;5088787;28;1083;-43
2021/06/26 12:25:36;;;;;;;;;;;;;;;23.21;78.88;100396.88;5085719;28;1036;-43
2021/06/26 12:28:03;;;;;;;;;;;;;;;23.18;78.94;100386.44;5080246;28;1823;-43
2021/06/26 12:30:30;;;;;;;;;;;;;;;23.21;78.98;100396.88;5082705;28;1912;-42
2021/06/26 12:33:03;;;;;;;;;;;;;;;23.19;78.79;100394.34;5083743;28;1756;-42
2021/06/26 12:35:30;;;;;;;;;;;;;;;23.23;78.96;100400.25;5080087;28;1657;-43
2021/06/26 12:37:57;;;;;;;;;;;;;;;23.21;79.06;100378.81;5090920;28;1003;-43
2021/06/26 12:40:26;;;;;;;;;;;;;;;23.23;79.08;100394.84;5081480;28;1922;-42
2021/06/26 12:42:55;;;;;;;;;;;;;;;23.20;78.78;100382.56;5079812;28;1668;-43
2021/06/26 12:45:25;;;;;;;;;;;;;;;23.22;78.66;100385.09;5074806;28;1886;-43
2021/06/26 12:47:58;;;;;;;;;;;;;;;23.22;78.84;100387.78;5083716;28;1702;-42
2021/06/26 12:50:30;;;;;;;;;;;;;;;23.22;79.11;100367.03;5086083;28;1909;-42
2021/06/26 12:52:58;;;;;;;;;;;;;;;23.24;78.68;100374.97;5077188;28;1098;-42
2021/06/26 12:55:25;;;;;;;;;;;;;;;23.23;78.43;100373.25;5080283;28;2002;-43
2021/06/26 12:57:51;;;;;;;;;;;;;;;23.23;79.01;100359.78;5089743;28;1909;-43